createdAt,value
2023-02-27T00:02:02.910Z,96232.78
2023-02-27T00:04:29.878Z,96231.09
2023-02-27T00:06:56.832Z,96232.94
2023-02-27T00:09:23.939Z,96228.75
2023-02-27T00:11:51.007Z,96231.41
2023-02-27T00:14:18.270Z,96237.56
2023-02-27T00:16:45.247Z,96232.38
2023-02-27T00:19:12.792Z,96232.38
2023-02-27T00:21:39.778Z,96238.56
2023-02-27T00:24:07.180Z,96240.16
2023-02-27T00:26:34.162Z,96242.06
2023-02-27T00:29:01.134Z,96241.16
2023-02-27T00:31:28.522Z,96241.16
2023-02-27T00:33:55.740Z,96247.84
2023-02-27T00:36:22.913Z,96244.97
2023-02-27T00:38:49.903Z,96244.84
2023-02-27T00:41:18.267Z,96247.16
2023-02-27T00:43:45.563Z,96247.03
2023-02-27T00:46:12.473Z,96242.53
2023-02-27T00:48:39.485Z,96238.97
2023-02-27T00:51:08.693Z,96252.72
2023-02-27T00:53:35.736Z,96239.63
2023-02-27T00:56:02.756Z,96236.84
2023-02-27T00:58:29.830Z,96244.63
2023-02-27T01:00:59.352Z,96250.53
2023-02-27T01:03:28.419Z,96249.47
2023-02-27T01:05:55.385Z,96233.78
2023-02-27T01:08:22.430Z,96234.50
2023-02-27T01:10:49.381Z,96240.22
2023-02-27T01:13:16.427Z,96238.41
2023-02-27T01:15:43.419Z,96239.94
2023-02-27T01:18:10.462Z,96240.63
2023-02-27T01:20:37.479Z,96233.59
2023-02-27T01:23:04.671Z,96230.88
2023-02-27T01:25:31.684Z,96246.38
2023-02-27T01:27:58.722Z,96233.38
2023-02-27T01:30:25.753Z,96235.06
2023-02-27T01:32:52.891Z,96232.47
2023-02-27T01:35:19.872Z,96236.66
2023-02-27T01:37:48.795Z,96238.41
2023-02-27T01:40:16.259Z,96242.63
2023-02-27T01:42:43.304Z,96240.94
2023-02-27T01:45:13.403Z,96254.63
2023-02-27T01:47:42.371Z,96243.41
2023-02-27T01:50:09.877Z,96231.34
2023-02-27T01:52:37.823Z,96236.41
2023-02-27T01:55:08.698Z,96242.44
2023-02-27T01:57:36.462Z,96248.28
2023-02-27T02:00:05.592Z,96249.91
2023-02-27T02:02:42.564Z,96251.44
2023-02-27T02:05:10.091Z,96250.44
2023-02-27T02:07:38.790Z,96246.94
2023-02-27T02:10:06.553Z,96249.41
2023-02-27T02:12:35.420Z,96256.25
2023-02-27T02:15:02.907Z,96245.88
2023-02-27T02:17:40.367Z,96251.84
2023-02-27T02:20:22.364Z,96254.44
2023-02-27T02:23:15.589Z,96241.44
2023-02-27T02:25:45.746Z,96244.03
2023-02-27T02:28:12.726Z,96246.63
2023-02-27T02:30:42.599Z,96248.31
2023-02-27T02:33:32.370Z,96246.72
2023-02-27T02:36:08.311Z,96233.66
2023-02-27T02:39:01.449Z,96238.06
2023-02-27T02:41:34.169Z,96238.19
2023-02-27T02:44:03.900Z,96241.75
2023-02-27T02:46:30.858Z,96240.91
2023-02-27T02:49:06.372Z,96237.47
2023-02-27T02:51:40.104Z,96253.06
2023-02-27T02:54:07.415Z,96239.28
2023-02-27T02:56:44.381Z,96240.31
2023-02-27T02:59:27.916Z,96249.13
2023-02-27T03:02:01.848Z,96246.00
2023-02-27T03:04:32.410Z,96237.59
2023-02-27T03:07:04.303Z,96237.88
2023-02-27T03:09:40.643Z,96240.63
2023-02-27T03:12:10.454Z,96242.59
2023-02-27T03:14:40.945Z,96241.06
2023-02-27T03:17:10.877Z,96241.13
2023-02-27T03:19:41.961Z,96234.31
2023-02-27T03:22:11.196Z,96239.50
2023-02-27T03:24:47.323Z,96235.28
2023-02-27T03:27:16.733Z,96238.00
2023-02-27T03:29:58.551Z,96244.09
2023-02-27T03:32:26.212Z,96239.81
2023-02-27T03:34:53.293Z,96245.00
2023-02-27T03:37:26.595Z,96242.34
2023-02-27T03:39:59.823Z,96238.91
2023-02-27T03:42:30.601Z,96240.72
2023-02-27T03:45:19.977Z,96233.84
2023-02-27T03:47:47.395Z,96246.75
2023-02-27T03:50:15.395Z,96252.78
2023-02-27T03:52:43.235Z,96249.22
2023-02-27T03:55:13.886Z,96261.88
2023-02-27T03:57:41.305Z,96256.63
2023-02-27T04:00:12.194Z,96253.03
2023-02-27T04:02:44.532Z,96256.56
2023-02-27T04:05:13.864Z,96260.81
2023-02-27T04:07:53.479Z,96264.25
2023-02-27T04:10:31.116Z,96267.69
2023-02-27T04:13:15.140Z,96265.03
2023-02-27T04:15:50.969Z,96265.94
2023-02-27T04:18:23.815Z,96271.91
2023-02-27T04:20:53.653Z,96278.00
2023-02-27T04:23:27.176Z,96285.72
2023-02-27T04:26:14.946Z,96277.88
2023-02-27T04:28:50.789Z,96272.69
2023-02-27T04:31:25.212Z,96284.81
2023-02-27T04:33:56.080Z,96264.13
2023-02-27T04:36:36.599Z,96268.59
2023-02-27T04:39:03.815Z,96261.81
2023-02-27T04:41:43.667Z,96268.00
2023-02-27T04:44:12.174Z,96274.22
2023-02-27T04:46:42.250Z,96290.00
2023-02-27T04:49:15.946Z,96266.78
2023-02-27T04:52:02.915Z,96260.84
2023-02-27T04:54:44.182Z,96273.06
2023-02-27T04:57:13.176Z,96268.78
2023-02-27T04:59:44.056Z,96271.44
2023-02-27T05:02:17.262Z,96272.41
2023-02-27T05:04:46.098Z,96272.41
2023-02-27T05:07:16.340Z,96263.88
2023-02-27T05:09:59.207Z,96268.22
2023-02-27T05:12:29.315Z,96263.03
2023-02-27T05:14:59.290Z,96266.47
2023-02-27T05:17:29.889Z,96272.50
2023-02-27T05:19:57.223Z,96269.13
2023-02-27T05:22:42.493Z,96268.28
2023-02-27T05:25:14.400Z,96276.91
2023-02-27T05:28:05.389Z,96267.44
2023-02-27T05:30:32.480Z,96266.66
2023-02-27T05:33:05.099Z,96269.31
2023-02-27T05:35:34.571Z,96271.00
2023-02-27T05:38:07.282Z,96263.28
2023-02-27T05:40:36.941Z,96263.28
2023-02-27T05:43:13.417Z,96273.66
2023-02-27T05:45:41.323Z,96271.06
2023-02-27T05:48:11.369Z,96290.00
2023-02-27T05:50:38.948Z,96280.63
2023-02-27T05:53:08.661Z,96285.81
2023-02-27T05:55:41.557Z,96284.13
2023-02-27T05:58:08.531Z,96287.47
2023-02-27T06:00:38.607Z,96286.63
2023-02-27T06:03:06.129Z,96290.06
2023-02-27T06:05:33.501Z,96294.34
2023-02-27T06:08:01.107Z,96294.28
2023-02-27T06:10:28.480Z,96287.34
2023-02-27T06:12:55.442Z,96290.66
2023-02-27T06:15:23.521Z,96291.41
2023-02-27T06:17:50.549Z,96297.31
2023-02-27T06:20:17.845Z,96293.69
2023-02-27T06:22:44.792Z,96300.41
2023-02-27T06:25:11.864Z,96299.34
2023-02-27T06:27:39.312Z,96300.81
2023-02-27T06:30:07.691Z,96301.38
2023-02-27T06:32:34.809Z,96301.84
2023-02-27T06:35:02.101Z,96309.28
2023-02-27T06:37:29.011Z,96310.59
2023-02-27T06:39:56.011Z,96305.75
2023-02-27T06:42:23.395Z,96300.75
2023-02-27T06:44:50.424Z,96306.88
2023-02-27T06:47:17.610Z,96301.16
2023-02-27T06:49:44.809Z,96315.47
2023-02-27T06:52:11.910Z,96333.28
2023-02-27T06:54:38.857Z,96308.66
2023-02-27T06:57:05.925Z,96311.72
2023-02-27T06:59:32.976Z,96317.44
2023-02-27T07:02:00.864Z,96304.16
2023-02-27T07:04:27.908Z,96309.88
2023-02-27T07:07:33.798Z,96320.81
2023-02-27T07:09:42.147Z,96315.28
2023-02-27T07:12:09.368Z,96305.72
2023-02-27T07:14:36.514Z,96307.06
2023-02-27T07:17:06.402Z,96314.72
2023-02-27T07:19:36.170Z,96311.63
2023-02-27T07:22:03.870Z,96308.88
2023-02-27T07:24:30.946Z,96315.66
2023-02-27T07:26:58.005Z,96315.00
2023-02-27T07:29:24.949Z,96324.31
2023-02-27T07:31:51.928Z,96316.41
2023-02-27T07:34:18.946Z,96320.38
2023-02-27T07:36:46.068Z,96336.50
2023-02-27T07:39:13.420Z,96319.13
2023-02-27T07:41:40.414Z,96324.78
2023-02-27T07:44:08.891Z,96336.72
2023-02-27T07:46:36.265Z,96324.31
2023-02-27T07:49:03.318Z,96323.97
2023-02-27T07:51:30.443Z,96332.47
2023-02-27T07:53:58.535Z,96334.25
2023-02-27T07:56:28.970Z,96325.28
2023-02-27T07:58:56.261Z,96323.41
2023-02-27T08:01:23.389Z,96343.88
2023-02-27T08:03:50.414Z,96335.00
2023-02-27T08:06:17.400Z,96329.91
2023-02-27T08:08:44.452Z,96338.41
2023-02-27T08:11:11.710Z,96340.63
2023-02-27T08:16:26.357Z,96343.66
2023-02-27T08:18:53.901Z,96338.13
2023-02-27T08:21:21.004Z,96350.69
2023-02-27T08:23:48.191Z,96328.09
2023-02-27T08:26:15.442Z,96338.03
2023-02-27T08:28:43.044Z,96341.31
2023-02-27T08:31:10.147Z,96344.94
2023-02-27T08:33:37.104Z,96359.91
2023-02-27T08:36:04.202Z,96351.69
2023-02-27T08:38:31.175Z,96391.78
2023-02-27T08:40:58.159Z,96346.88
2023-02-27T08:43:25.471Z,96355.88
2023-02-27T08:45:53.030Z,96355.56
2023-02-27T08:48:20.031Z,96363.19
2023-02-27T08:50:47.192Z,96363.59
2023-02-27T08:53:14.143Z,96370.41
2023-02-27T08:55:41.257Z,96366.53
2023-02-27T08:58:08.616Z,96378.66
2023-02-27T09:00:35.919Z,96383.63
2023-02-27T09:03:03.011Z,96381.50
2023-02-27T09:05:30.180Z,96374.41
2023-02-27T09:07:57.176Z,96395.84
2023-02-27T09:10:24.365Z,96390.72
2023-02-27T09:12:51.375Z,96378.78
2023-02-27T09:15:18.450Z,96390.19
2023-02-27T09:17:45.741Z,96392.63
2023-02-27T09:20:13.123Z,96385.13
2023-02-27T09:22:40.250Z,96403.50
2023-02-27T09:25:07.426Z,96392.44
2023-02-27T09:27:34.796Z,96394.84
2023-02-27T09:30:01.901Z,96408.81
2023-02-27T09:32:29.148Z,96392.78
2023-02-27T09:34:56.250Z,96403.53
2023-02-27T09:37:25.246Z,96400.44
2023-02-27T09:39:52.415Z,96404.38
2023-02-27T09:42:19.743Z,96410.28
2023-02-27T09:44:48.145Z,96427.56
2023-02-27T09:47:17.913Z,96406.63
2023-02-27T09:50:08.009Z,96413.22
2023-02-27T09:52:36.915Z,96418.06
2023-02-27T09:55:14.568Z,96422.75
2023-02-27T09:57:45.970Z,96425.44
2023-02-27T10:00:20.505Z,96434.78
2023-02-27T10:02:53.498Z,96436.41
2023-02-27T10:05:20.582Z,96432.00
2023-02-27T10:08:19.845Z,96458.81
2023-02-27T10:10:49.614Z,96434.72
2023-02-27T10:13:31.649Z,96450.09
2023-02-27T10:16:00.220Z,96442.13
2023-02-27T10:18:30.929Z,96458.00
2023-02-27T10:21:03.167Z,96451.03
2023-02-27T10:23:39.631Z,96459.63
2023-02-27T10:26:08.487Z,96464.97
2023-02-27T10:28:35.522Z,96461.38
2023-02-27T10:31:02.889Z,96467.38
2023-02-27T10:33:35.934Z,96459.66
2023-02-27T10:36:03.780Z,96455.00
2023-02-27T10:38:39.763Z,96466.03
2023-02-27T10:41:08.518Z,96456.72
2023-02-27T10:43:35.619Z,96451.63
2023-02-27T10:46:03.760Z,96445.75
2023-02-27T10:48:32.480Z,96466.91
2023-02-27T10:51:18.230Z,96474.47
2023-02-27T10:53:45.187Z,96443.91
2023-02-27T10:56:15.835Z,96447.59
2023-02-27T10:58:42.795Z,96448.72
2023-02-27T11:01:11.307Z,96449.75
2023-02-27T11:03:42.780Z,96446.38
2023-02-27T11:06:09.756Z,96478.72
2023-02-27T11:08:36.828Z,96447.66
2023-02-27T11:11:09.910Z,96451.81
2023-02-27T11:13:38.755Z,96465.13
2023-02-27T11:16:08.353Z,96459.59
2023-02-27T11:18:36.575Z,96469.03
2023-02-27T11:21:12.203Z,96449.47
2023-02-27T11:23:49.336Z,96453.06
2023-02-27T11:26:17.788Z,96460.78
2023-02-27T11:28:44.890Z,96469.56
2023-02-27T11:31:21.699Z,96467.94
2023-02-27T11:33:53.805Z,96457.97
2023-02-27T11:36:23.944Z,96460.88
2023-02-27T11:38:53.369Z,96446.38
2023-02-27T11:41:22.674Z,96457.22
2023-02-27T11:43:52.359Z,96447.06
2023-02-27T11:46:46.688Z,96435.66
2023-02-27T11:49:14.777Z,96458.22
2023-02-27T11:51:57.146Z,96441.91
2023-02-27T11:54:42.794Z,96444.56
2023-02-27T11:57:18.915Z,96432.44
2023-02-27T11:59:51.110Z,96433.53
2023-02-27T12:02:23.924Z,96442.50
2023-02-27T12:04:50.986Z,96446.81
2023-02-27T12:07:21.307Z,96452.66
2023-02-27T12:09:48.309Z,96428.81
2023-02-27T12:12:24.927Z,96449.00
2023-02-27T12:15:10.686Z,96425.72
2023-02-27T12:17:45.384Z,96423.16
2023-02-27T12:20:12.930Z,96427.97
2023-02-27T12:22:46.098Z,96425.78
2023-02-27T12:25:33.821Z,96431.16
2023-02-27T12:28:12.277Z,96411.38
2023-02-27T12:30:42.773Z,96443.81
2023-02-27T12:33:25.612Z,96429.63
2023-02-27T12:35:58.856Z,96419.19
2023-02-27T12:38:26.073Z,96439.16
2023-02-27T12:41:16.473Z,96419.31
2023-02-27T12:43:54.786Z,96430.44
2023-02-27T12:46:38.814Z,96422.94
2023-02-27T12:49:09.497Z,96427.78
2023-02-27T12:51:43.468Z,96411.38
2023-02-27T12:54:16.327Z,96430.72
2023-02-27T12:56:51.464Z,96435.25
2023-02-27T12:59:27.814Z,96430.81
2023-02-27T13:02:04.638Z,96436.41
2023-02-27T13:04:31.586Z,96430.00
2023-02-27T13:07:02.668Z,96428.41
2023-02-27T13:09:32.374Z,96425.84
2023-02-27T13:11:59.432Z,96430.78
2023-02-27T13:14:45.043Z,96434.69
2023-02-27T13:17:25.835Z,96434.88
2023-02-27T13:20:00.713Z,96426.88
2023-02-27T13:22:41.545Z,96425.72
2023-02-27T13:25:14.650Z,96422.19
2023-02-27T13:28:03.012Z,96424.03
2023-02-27T13:30:41.174Z,96429.16
2023-02-27T13:33:14.321Z,96448.13
2023-02-27T13:35:59.914Z,96451.25
2023-02-27T13:38:46.371Z,96430.72
2023-02-27T13:41:25.351Z,96436.25
2023-02-27T13:43:56.774Z,96426.03
2023-02-27T13:46:23.883Z,96420.50
2023-02-27T13:48:54.995Z,96422.00
2023-02-27T13:51:40.459Z,96432.06
2023-02-27T13:54:13.443Z,96437.53
2023-02-27T13:56:43.343Z,96423.88
2023-02-27T13:59:26.754Z,96418.13
2023-02-27T14:01:55.386Z,96423.34
2023-02-27T14:04:25.727Z,96420.38
2023-02-27T14:06:58.949Z,96421.97
2023-02-27T14:09:26.506Z,96429.09
2023-02-27T14:11:55.733Z,96416.25
2023-02-27T14:14:41.657Z,96436.78
2023-02-27T14:17:10.903Z,96419.88
2023-02-27T14:19:40.834Z,96418.25
2023-02-27T14:22:16.861Z,96424.41
2023-02-27T14:25:02.545Z,96417.81
2023-02-27T14:27:39.358Z,96415.03
2023-02-27T14:30:22.375Z,96417.41
2023-02-27T14:32:55.095Z,96435.50
2023-02-27T14:35:22.185Z,96433.06
2023-02-27T14:37:50.280Z,96420.44
2023-02-27T14:40:29.922Z,96419.53
2023-02-27T14:43:00.311Z,96425.00
2023-02-27T14:45:29.048Z,96416.41
2023-02-27T14:47:57.130Z,96423.31
2023-02-27T14:50:24.120Z,96424.56
2023-02-27T14:52:51.267Z,96424.59
2023-02-27T14:55:20.400Z,96439.31
2023-02-27T14:57:56.441Z,96431.22
2023-02-27T15:00:50.945Z,96441.06
2023-02-27T15:03:20.399Z,96437.94
2023-02-27T15:05:48.999Z,96440.81
2023-02-27T15:08:36.336Z,96432.31
2023-02-27T15:11:03.385Z,96439.53
2023-02-27T15:13:40.028Z,96445.88
2023-02-27T15:16:25.417Z,96446.16
2023-02-27T15:18:54.198Z,96453.16
2023-02-27T15:21:22.335Z,96441.56
2023-02-27T15:24:00.968Z,96440.81
2023-02-27T15:26:30.415Z,96447.00
2023-02-27T15:29:00.150Z,96452.16
2023-02-27T15:31:30.323Z,96446.94
2023-02-27T15:33:58.484Z,96445.94
2023-02-27T15:36:27.774Z,96448.78
2023-02-27T15:39:03.952Z,96458.47
2023-02-27T15:41:31.066Z,96447.94
2023-02-27T15:43:58.246Z,96453.56
2023-02-27T15:46:25.939Z,96458.34
2023-02-27T15:48:55.009Z,96465.56
2023-02-27T15:51:22.004Z,96467.31
2023-02-27T15:53:50.138Z,96474.22
2023-02-27T15:56:18.456Z,96464.81
2023-02-27T15:58:51.017Z,96464.72
2023-02-27T16:01:19.689Z,96462.03
2023-02-27T16:03:50.941Z,96481.88
2023-02-27T16:06:19.791Z,96474.16
2023-02-27T16:08:48.604Z,96477.69
2023-02-27T16:11:23.089Z,96472.53
2023-02-27T16:13:50.603Z,96481.44
2023-02-27T16:16:20.247Z,96489.56
2023-02-27T16:18:48.783Z,96497.47
2023-02-27T16:21:20.194Z,96501.69
2023-02-27T16:23:47.446Z,96497.34
2023-02-27T16:26:23.146Z,96497.56
2023-02-27T16:28:54.770Z,96497.66
2023-02-27T16:31:38.587Z,96499.56
2023-02-27T16:34:16.591Z,96508.69
2023-02-27T16:36:52.407Z,96507.06
2023-02-27T16:39:19.469Z,96516.28
2023-02-27T16:41:46.454Z,96516.41
2023-02-27T16:44:13.435Z,96513.03
2023-02-27T16:46:40.344Z,96510.59
2023-02-27T16:49:20.140Z,96520.31
2023-02-27T16:51:47.288Z,96522.31
2023-02-27T16:54:15.747Z,96528.34
2023-02-27T16:56:44.609Z,96525.66
2023-02-27T16:59:24.220Z,96530.78
2023-02-27T17:01:51.128Z,96549.06
2023-02-27T17:04:25.588Z,96528.13
2023-02-27T17:06:53.458Z,96538.47
2023-02-27T17:09:20.921Z,96540.16
2023-02-27T17:11:57.477Z,96568.00
2023-02-27T17:14:24.802Z,96554.22
2023-02-27T17:16:51.850Z,96562.19
2023-02-27T17:19:21.799Z,96577.41
2023-02-27T17:21:49.280Z,96565.22
2023-02-27T17:24:16.462Z,96556.56
2023-02-27T17:26:43.496Z,96571.41
2023-02-27T17:29:10.531Z,96562.81
2023-02-27T17:31:37.876Z,96574.16
2023-02-27T17:34:05.781Z,96570.03
2023-02-27T17:36:32.783Z,96566.50
2023-02-27T17:39:03.262Z,96571.84
2023-02-27T17:41:31.184Z,96575.59
2023-02-27T17:43:59.056Z,96588.66
2023-02-27T17:46:27.586Z,96585.28
2023-02-27T17:48:56.775Z,96592.47
2023-02-27T17:51:23.742Z,96583.09
2023-02-27T17:53:50.818Z,96596.28
2023-02-27T17:56:17.930Z,96594.50
2023-02-27T17:58:47.902Z,96598.78
2023-02-27T18:01:17.248Z,96591.91
2023-02-27T18:03:47.245Z,96592.72
2023-02-27T18:06:14.937Z,96600.75
2023-02-27T18:08:42.009Z,96595.84
2023-02-27T18:11:11.098Z,96597.44
2023-02-27T18:13:38.172Z,96606.09
2023-02-27T18:16:05.336Z,96619.19
2023-02-27T18:18:32.482Z,96607.84
2023-02-27T18:21:00.405Z,96606.38
2023-02-27T18:23:27.477Z,96615.81
2023-02-27T18:25:58.306Z,96615.88
2023-02-27T18:28:25.724Z,96611.69
2023-02-27T18:30:52.824Z,96609.03
2023-02-27T18:33:19.980Z,96612.69
2023-02-27T18:35:47.428Z,96618.75
2023-02-27T18:38:14.929Z,96637.84
2023-02-27T18:40:43.161Z,96616.28
2023-02-27T18:43:10.837Z,96621.75
2023-02-27T18:45:38.323Z,96626.28
2023-02-27T18:48:05.536Z,96634.59
2023-02-27T18:50:32.595Z,96642.72
2023-02-27T18:53:00.521Z,96622.91
2023-02-27T18:55:27.564Z,96625.56
2023-02-27T18:57:54.539Z,96632.56
2023-02-27T19:00:24.643Z,96636.81
2023-02-27T19:02:51.774Z,96633.63
2023-02-27T19:05:20.441Z,96633.56
2023-02-27T19:07:47.437Z,96632.00
2023-02-27T19:10:15.458Z,96630.47
2023-02-27T19:12:42.841Z,96638.31
2023-02-27T19:15:10.914Z,96649.56
2023-02-27T19:17:37.995Z,96641.81
2023-02-27T19:20:07.060Z,96629.72
2023-02-27T19:22:34.749Z,96642.66
2023-02-27T19:25:01.925Z,96645.31
2023-02-27T19:27:28.995Z,96635.72
2023-02-27T19:29:56.037Z,96653.97
2023-02-27T19:32:23.240Z,96629.66
2023-02-27T19:34:50.319Z,96625.25
2023-02-27T19:37:17.642Z,96622.66
2023-02-27T19:39:44.785Z,96620.06
2023-02-27T19:42:11.776Z,96621.81
2023-02-27T19:44:40.306Z,96631.31
2023-02-27T19:47:07.360Z,96619.06
2023-02-27T19:49:34.547Z,96619.84
2023-02-27T19:52:03.167Z,96624.16
2023-02-27T19:54:30.874Z,96627.66
2023-02-27T19:56:57.797Z,96624.16
2023-02-27T19:59:25.200Z,96619.00
2023-02-27T20:01:52.538Z,96629.28
2023-02-27T20:04:19.634Z,96629.28
2023-02-27T20:06:47.678Z,96624.88
2023-02-27T20:09:16.116Z,96623.88
2023-02-27T20:11:43.822Z,96631.59
2023-02-27T20:14:12.012Z,96622.97
2023-02-27T20:16:40.198Z,96621.28
2023-02-27T20:19:10.394Z,96628.16
2023-02-27T20:21:37.800Z,96620.38
2023-02-27T20:24:04.940Z,96626.28
2023-02-27T20:26:36.343Z,96627.31
2023-02-27T20:29:14.018Z,96622.13
2023-02-27T20:31:42.662Z,96628.09
2023-02-27T20:34:11.985Z,96623.19
2023-02-27T20:36:39.885Z,96618.81
2023-02-27T20:39:07.287Z,96618.88
2023-02-27T20:41:35.001Z,96621.44
2023-02-27T20:44:02.694Z,96613.63
2023-02-27T20:46:30.066Z,96603.63
2023-02-27T20:48:58.369Z,96612.97
2023-02-27T20:51:26.655Z,96611.22
2023-02-27T20:53:55.589Z,96599.84
2023-02-27T20:56:23.500Z,96602.63
2023-02-27T20:58:50.513Z,96604.31
2023-02-27T21:01:17.889Z,96599.28
2023-02-27T21:03:45.790Z,96588.81
2023-02-27T21:06:14.500Z,96606.03
2023-02-27T21:08:42.783Z,96589.59
2023-02-27T21:11:10.660Z,96589.66
2023-02-27T21:13:38.224Z,96587.91
2023-02-27T21:16:06.522Z,96594.16
2023-02-27T21:18:33.742Z,96593.38
2023-02-27T21:21:08.984Z,96609.06
2023-02-27T21:23:41.619Z,96601.28
2023-02-27T21:26:09.629Z,96602.28
2023-02-27T21:28:42.617Z,96596.22
2023-02-27T21:31:09.607Z,96597.13
2023-02-27T21:33:36.549Z,96594.53
2023-02-27T21:36:03.625Z,96592.06
2023-02-27T21:38:31.310Z,96584.34
2023-02-27T21:40:58.689Z,96587.88
2023-02-27T21:43:25.596Z,96583.66
2023-02-27T21:45:52.560Z,96577.72
2023-02-27T21:48:19.585Z,96576.19
2023-02-27T21:50:46.671Z,96580.72
2023-02-27T21:53:13.665Z,96568.78
2023-02-27T21:55:40.677Z,96579.28
2023-02-27T21:58:10.645Z,96581.31
2023-02-27T22:00:37.987Z,96577.06
2023-02-27T22:03:05.103Z,96568.59
2023-02-27T22:05:32.147Z,96578.19
2023-02-27T22:07:59.138Z,96580.78
2023-02-27T22:10:26.096Z,96584.22
2023-02-27T22:12:53.018Z,96570.34
2023-02-27T22:15:20.137Z,96567.59
2023-02-27T22:17:47.106Z,96563.13
2023-02-27T22:20:14.106Z,96567.34
2023-02-27T22:22:40.935Z,96562.03
2023-02-27T22:25:08.095Z,96566.19
2023-02-27T22:27:35.096Z,96558.25
2023-02-27T22:30:02.250Z,96553.00
2023-02-27T22:32:29.324Z,96546.84
2023-02-27T22:34:58.547Z,96556.38
2023-02-27T22:37:25.488Z,96542.66
2023-02-27T22:39:52.414Z,96547.09
2023-02-27T22:42:19.476Z,96537.81
2023-02-27T22:44:46.436Z,96537.22
2023-02-27T22:47:13.529Z,96536.59
2023-02-27T22:49:40.526Z,96538.47
2023-02-27T22:52:07.934Z,96533.47
2023-02-27T22:54:34.979Z,96530.16
2023-02-27T22:57:02.035Z,96525.03
2023-02-27T22:59:28.946Z,96536.47
2023-02-27T23:01:56.224Z,96527.88
2023-02-27T23:04:23.378Z,96525.34
2023-02-27T23:06:52.693Z,96525.41
2023-02-27T23:09:21.384Z,96529.00
2023-02-27T23:11:48.468Z,96527.31
2023-02-27T23:14:15.597Z,96518.72
2023-02-27T23:16:47.071Z,96528.31
2023-02-27T23:19:15.424Z,96523.22
2023-02-27T23:21:42.769Z,96529.31
2023-02-27T23:24:12.997Z,96522.38
2023-02-27T23:26:41.806Z,96527.69
2023-02-27T23:29:09.357Z,96524.25
2023-02-27T23:31:37.028Z,96520.88
2023-02-27T23:34:07.872Z,96526.06
2023-02-27T23:36:35.674Z,96520.88
2023-02-27T23:39:03.396Z,96510.47
2023-02-27T23:41:30.601Z,96512.28
2023-02-27T23:44:16.031Z,96511.47
2023-02-27T23:46:42.974Z,96507.19
2023-02-27T23:49:10.604Z,96513.34
2023-02-27T23:51:37.709Z,96512.56
2023-02-27T23:54:04.596Z,96501.53
2023-02-27T23:56:31.530Z,96511.97
2023-02-27T23:59:00.116Z,96505.16
